Cecil Field, Florida
Current Conditions -  °F | °C
As of 6:50 PM on Sunday 25 Jan 2015 (Local Time) from KVQQ Reporting Station
Clear Clear  
Wind Chill: 52°   Ceiling: Unl
Heat Index: 52°   Visibility: 10mi
Dew Point: 37°   Wind: 6mph
Humidity: 58%   Direction: 210°SSW
Pressure: 29.94"   Gusts: NA
Location:  30.2324°N, 81.8913°W
Report Text: KVQQ 252350Z 21005KT 10SM CLR 11/03 A2994
Loading
Personal Weather Stations






























Interactive Weather Map New forecast layout! Learn more

10-Day Weather Forecast

Advertisements
Track Severe Weather on mobile